KBCB/BCB METAR and TAF weather

Enter ICAO airport designator
Station Type Date Time Source
KBCB METAR 2021/09/25 12:15 UTC NOAA

KBCB 251215Z AUTO 00000KT M1/4SM FG OVC001 07/07 A3017 RMK AO2 T00710071


Station Type Date Time Source
KBCB Decoded METAR 2021/09/25 12:15 UTC NOAA

Virginia Tech Airport, VA, United States (KBCB) 37-13N 080-25W
Sep 25, 2021 - 08:15 AM EDT / 2021.09.25 1215 UTC
Wind: Calm:0
Visibility: less than 1/4 mile(s):1
Sky conditions: overcast
Weather: fog
Temperature: 44.8 F (7.1 C)
Dew Point: 44.8 F (7.1 C)
Relative Humidity: 100%
Pressure (altimeter): 30.17 in. Hg (1021 hPa)
ob: KBCB 251215Z AUTO 00000KT M1/4SM FG OVC001 07/07 A3017 RMK AO2 T00710071
cycle: 12

Station Type Date Time Source
KBCB TAF 2021/09/25 12:36 UTC NOAA

TAF KBCB 251132Z 2512/2612 00000KT 0SM FG OVC001
TEMPO 2512/2513 1/4SM FG
FM251330 26002KT P6SM SCT250
FM251800 26007G12KT P6SM SCT050 BKN250
FM260400 29004KT P6SM BKN050
FM261000 29002KT 1/4SM FG OVC001

Example: see airport list